Time,TemperatureF,DewpointF,PressureIn,WindDirection,WindDirectionDegrees,WindSpeedMPH,WindSpeedGustMPH,Humidity,HourlyPrecipIn,Conditions,Clouds,dailyrainin,SoftwareType,DateUTC
2013-11-09 00:00:00,34.1,21.7,30.14,South,188,0.0,5.0,60,0.00,,,0.00,Wunderground v.1.15,2013-11-09 05:00:00,
2013-11-09 00:10:00,34.1,22.0,30.14,South,188,0.0,0.0,61,0.00,,,0.00,Wunderground v.1.15,2013-11-09 05:10:00,
2013-11-09 00:20:00,34.0,21.6,30.14,South,188,0.0,0.0,60,0.00,,,0.00,Wunderground v.1.15,2013-11-09 05:20:00,
2013-11-09 00:30:00,33.8,21.8,30.14,South,188,0.0,0.0,61,0.00,,,0.00,Wunderground v.1.15,2013-11-09 05:30:00,
2013-11-09 00:40:00,33.5,21.5,30.14,South,188,0.0,0.0,61,0.00,,,0.00,Wunderground v.1.15,2013-11-09 05:40:00,
2013-11-09 00:50:00,33.2,21.6,30.15,South,188,0.0,2.0,62,0.00,,,0.00,Wunderground v.1.15,2013-11-09 05:50:00,
2013-11-09 01:00:00,33.1,21.5,30.15,West,259,1.0,1.0,62,0.00,,,0.00,Wunderground v.1.15,2013-11-09 06:00:00,
2013-11-09 01:10:00,32.9,21.7,30.15,West,259,0.0,6.0,63,0.00,,,0.00,Wunderground v.1.15,2013-11-09 06:10:00,
2013-11-09 01:20:00,32.8,21.6,30.16,West,259,0.0,6.0,63,0.00,,,0.00,Wunderground v.1.15,2013-11-09 06:20:00,
2013-11-09 01:30:00,32.5,21.7,30.16,West,259,0.0,6.0,64,0.00,,,0.00,Wunderground v.1.15,2013-11-09 06:30:00,
2013-11-09 01:40:00,32.5,21.7,30.16,West,259,0.0,6.0,64,0.00,,,0.00,Wunderground v.1.15,2013-11-09 06:40:00,
2013-11-09 01:50:00,32.4,21.6,30.16,West,259,0.0,6.0,64,0.00,,,0.00,Wunderground v.1.15,2013-11-09 06:50:00,
2013-11-09 02:00:00,32.2,21.4,30.16,West,259,0.0,6.0,64,0.00,,,0.00,Wunderground v.1.15,2013-11-09 07:00:00,
2013-11-09 02:10:00,32.1,21.3,30.16,SW,223,0.0,6.0,64,0.00,,,0.00,Wunderground v.1.15,2013-11-09 07:10:00,
2013-11-09 02:20:00,31.5,21.1,30.16,SW,223,0.0,6.0,65,0.00,,,0.00,Wunderground v.1.15,2013-11-09 07:20:00,
2013-11-09 02:30:00,31.0,21.3,30.16,SW,223,0.0,6.0,67,0.00,,,0.00,Wunderground v.1.15,2013-11-09 07:30:00,
2013-11-09 02:40:00,30.4,21.1,30.16,SW,223,0.0,6.0,68,0.00,,,0.00,Wunderground v.1.15,2013-11-09 07:40:00,
2013-11-09 02:50:00,30.1,20.8,30.17,SSW,202,0.0,6.0,68,0.00,,,0.00,Wunderground v.1.15,2013-11-09 07:50:00,
2013-11-09 03:00:00,30.4,20.7,30.17,SSW,199,0.0,6.0,67,0.00,,,0.00,Wunderground v.1.15,2013-11-09 08:00:00,
2013-11-09 03:10:00,30.3,20.3,30.17,SSW,199,0.0,6.0,66,0.00,,,0.00,Wunderground v.1.15,2013-11-09 08:10:00,
2013-11-09 03:20:00,30.1,20.1,30.17,SSW,199,0.0,6.0,66,0.00,,,0.00,Wunderground v.1.15,2013-11-09 08:20:00,
2013-11-09 03:30:00,30.0,20.4,30.17,SSW,199,0.0,6.0,67,0.00,,,0.00,Wunderground v.1.15,2013-11-09 08:30:00,
2013-11-09 03:40:00,29.7,20.1,30.17,SSW,199,0.0,6.0,67,0.00,,,0.00,Wunderground v.1.15,2013-11-09 08:40:00,
2013-11-09 03:50:00,29.7,20.4,30.18,SSW,199,0.0,6.0,68,0.00,,,0.00,Wunderground v.1.15,2013-11-09 08:50:00,
2013-11-09 04:00:00,29.8,20.2,30.18,SSW,199,0.0,6.0,67,0.00,,,0.00,Wunderground v.1.15,2013-11-09 09:00:00,
2013-11-09 04:10:00,29.5,20.2,30.18,SSW,199,0.0,6.0,68,0.00,,,0.00,Wunderground v.1.15,2013-11-09 09:10:00,
2013-11-09 04:20:00,29.4,20.5,30.18,SSW,199,0.0,6.0,69,0.00,,,0.00,Wunderground v.1.15,2013-11-09 09:20:00,
2013-11-09 04:30:00,29.4,20.1,30.19,SSW,199,0.0,6.0,68,0.00,,,0.00,Wunderground v.1.15,2013-11-09 09:30:00,
2013-11-09 04:40:00,29.7,20.1,30.19,NNW,346,1.0,1.0,67,0.00,,,0.00,Wunderground v.1.15,2013-11-09 09:40:00,
2013-11-09 04:50:00,30.1,19.7,30.19,North,1,0.0,6.0,65,0.00,,,0.00,Wunderground v.1.15,2013-11-09 09:50:00,
2013-11-09 05:00:00,29.5,19.5,30.19,North,1,0.0,6.0,66,0.00,,,0.00,Wunderground v.1.15,2013-11-09 10:00:00,
2013-11-09 05:10:00,29.4,19.8,30.19,NNW,327,0.0,6.0,67,0.00,,,0.00,Wunderground v.1.15,2013-11-09 10:10:00,
2013-11-09 05:20:00,29.5,19.9,30.19,NNW,333,0.0,6.0,67,0.00,,,0.00,Wunderground v.1.15,2013-11-09 10:20:00,
2013-11-09 05:30:00,29.3,20.0,30.19,NNW,333,0.0,6.0,68,0.00,,,0.00,Wunderground v.1.15,2013-11-09 10:30:00,
2013-11-09 05:40:00,29.0,20.4,30.19,NNW,334,1.0,1.0,70,0.00,,,0.00,Wunderground v.1.15,2013-11-09 10:40:00,
2013-11-09 05:50:00,28.5,20.3,30.20,NNW,334,0.0,6.0,71,0.00,,,0.00,Wunderground v.1.15,2013-11-09 10:50:00,
2013-11-09 06:00:00,29.0,20.8,30.20,NNW,347,1.0,6.0,71,0.00,,,0.00,Wunderground v.1.15,2013-11-09 11:00:00,
2013-11-09 06:10:00,28.5,20.9,30.20,NNE,14,2.0,2.0,73,0.00,,,0.00,Wunderground v.1.15,2013-11-09 11:10:00,
2013-11-09 06:20:00,28.1,20.9,30.20,NNE,14,0.0,0.0,74,0.00,,,0.00,Wunderground v.1.15,2013-11-09 11:20:00,
2013-11-09 06:30:00,28.4,20.5,30.20,NNE,14,0.0,0.0,72,0.00,,,0.00,Wunderground v.1.15,2013-11-09 11:30:00,
2013-11-09 06:40:00,28.1,20.6,30.20,NNE,14,0.0,0.0,73,0.00,,,0.00,Wunderground v.1.15,2013-11-09 11:40:00,
2013-11-09 06:50:00,28.5,20.9,30.20,NNE,14,1.0,1.0,73,0.00,,,0.00,Wunderground v.1.15,2013-11-09 11:50:00,
2013-11-09 07:00:00,28.5,20.6,30.21,NNE,14,0.0,0.0,72,0.00,,,0.00,Wunderground v.1.15,2013-11-09 12:00:00,
2013-11-09 07:10:00,28.8,20.9,30.21,NNE,14,0.0,4.0,72,0.00,,,0.00,Wunderground v.1.15,2013-11-09 12:10:00,
2013-11-09 07:20:00,28.7,21.1,30.22,NNE,14,0.0,4.0,73,0.00,,,0.00,Wunderground v.1.15,2013-11-09 12:20:00,
2013-11-09 07:30:00,29.1,20.9,30.22,NNE,14,0.0,4.0,71,0.00,,,0.00,Wunderground v.1.15,2013-11-09 12:30:00,
2013-11-09 07:40:00,27.8,20.6,30.22,NNE,25,0.0,4.0,74,0.00,,,0.00,Wunderground v.1.15,2013-11-09 12:40:00,
2013-11-09 07:50:00,28.8,20.9,30.23,NNE,33,1.0,1.0,72,0.00,,,0.00,Wunderground v.1.15,2013-11-09 12:50:00,
2013-11-09 08:00:00,29.5,21.3,30.22,NNE,33,0.0,4.0,71,0.00,,,0.00,Wunderground v.1.15,2013-11-09 13:00:00,
2013-11-09 08:10:00,30.1,21.2,30.22,NNE,33,0.0,4.0,69,0.00,,,0.00,Wunderground v.1.15,2013-11-09 13:10:00,
2013-11-09 08:20:00,30.6,20.9,30.22,NNE,33,0.0,4.0,67,0.00,,,0.00,Wunderground v.1.15,2013-11-09 13:20:00,
2013-11-09 08:30:00,31.6,21.5,30.23,NE,35,0.0,4.0,66,0.00,,,0.00,Wunderground v.1.15,2013-11-09 13:30:00,
2013-11-09 08:40:00,32.7,21.9,30.23,SE,139,1.0,4.0,64,0.00,,,0.00,Wunderground v.1.15,2013-11-09 13:40:00,
2013-11-09 08:50:00,33.7,22.1,30.22,SE,139,1.0,1.0,62,0.00,,,0.00,Wunderground v.1.15,2013-11-09 13:50:00,
2013-11-09 09:00:00,34.4,21.9,30.22,SE,140,0.0,4.0,60,0.00,,,0.00,Wunderground v.1.15,2013-11-09 14:00:00,
2013-11-09 09:10:00,35.5,23.8,30.22,SE,142,0.0,4.0,62,0.00,,,0.00,Wunderground v.1.15,2013-11-09 14:10:00,
2013-11-09 09:20:00,36.3,23.3,30.22,South,184,1.0,1.0,59,0.00,,,0.00,Wunderground v.1.15,2013-11-09 14:20:00,
2013-11-09 09:30:00,37.0,22.3,30.21,SSE,158,1.0,4.0,55,0.00,,,0.00,Wunderground v.1.15,2013-11-09 14:30:00,
2013-11-09 09:40:00,37.8,23.1,30.21,SE,131,1.0,1.0,55,0.00,,,0.00,Wunderground v.1.15,2013-11-09 14:40:00,
2013-11-09 09:50:00,38.8,24.4,30.21,SSE,162,1.0,1.0,56,0.00,,,0.00,Wunderground v.1.15,2013-11-09 14:50:00,
2013-11-09 10:00:00,38.9,22.8,30.22,South,181,1.0,1.0,52,0.00,,,0.00,Wunderground v.1.15,2013-11-09 15:00:00,
2013-11-09 10:10:00,38.5,22.4,30.22,ESE,106,1.0,1.0,52,0.00,,,0.00,Wunderground v.1.15,2013-11-09 15:10:00,
2013-11-09 10:20:00,39.1,23.4,30.22,ESE,121,2.0,2.0,53,0.00,,,0.00,Wunderground v.1.15,2013-11-09 15:20:00,
2013-11-09 10:30:00,38.3,23.5,30.22,SSE,151,3.0,3.0,55,0.00,,,0.00,Wunderground v.1.15,2013-11-09 15:30:00,
2013-11-09 10:40:00,37.5,23.2,30.22,East,93,4.0,5.0,56,0.00,,,0.00,Wunderground v.1.15,2013-11-09 15:40:00,
2013-11-09 10:50:00,37.8,23.1,30.20,SSE,152,4.0,4.0,55,0.00,,,0.00,Wunderground v.1.15,2013-11-09 15:50:00,
2013-11-09 11:00:00,38.0,23.3,30.20,SE,146,3.0,4.0,55,0.00,,,0.00,Wunderground v.1.15,2013-11-09 16:00:00,
2013-11-09 11:10:00,38.0,23.3,30.20,ESE,102,2.0,6.0,55,0.00,,,0.00,Wunderground v.1.15,2013-11-09 16:10:00,
2013-11-09 11:20:00,37.8,22.2,30.20,ESE,121,3.0,4.0,53,0.00,,,0.00,Wunderground v.1.15,2013-11-09 16:20:00,
2013-11-09 11:30:00,38.0,23.3,30.20,ESE,121,1.0,1.0,55,0.00,,,0.00,Wunderground v.1.15,2013-11-09 16:30:00,
2013-11-09 11:40:00,38.6,22.9,30.20,South,191,1.0,1.0,53,0.00,,,0.00,Wunderground v.1.15,2013-11-09 16:40:00,
2013-11-09 11:50:00,39.1,24.3,30.19,SSE,154,1.0,4.0,55,0.00,,,0.00,Wunderground v.1.15,2013-11-09 16:50:00,
2013-11-09 12:00:00,38.8,23.1,30.18,SSE,156,1.0,1.0,53,0.00,,,0.00,Wunderground v.1.15,2013-11-09 17:00:00,
2013-11-09 12:10:00,38.8,23.1,30.18,SW,224,0.0,1.0,53,0.00,,,0.00,Wunderground v.1.15,2013-11-09 17:10:00,
2013-11-09 12:20:00,39.1,23.8,30.17,SSE,158,0.0,2.0,54,0.00,,,0.00,Wunderground v.1.15,2013-11-09 17:20:00,
2013-11-09 12:30:00,39.2,23.9,30.16,SSE,158,1.0,2.0,54,0.00,,,0.00,Wunderground v.1.15,2013-11-09 17:30:00,
2013-11-09 12:40:00,39.6,25.6,30.16,SSW,196,1.0,3.0,57,0.00,,,0.00,Wunderground v.1.15,2013-11-09 17:40:00,
2013-11-09 12:50:00,39.3,25.3,30.16,SE,131,2.0,3.0,57,0.00,,,0.00,Wunderground v.1.15,2013-11-09 17:50:00,
2013-11-09 13:00:00,38.8,24.9,30.14,SE,145,1.0,3.0,57,0.00,,,0.00,Wunderground v.1.15,2013-11-09 18:00:00,
2013-11-09 13:10:00,38.8,25.3,30.14,SSE,156,1.0,7.0,58,0.00,,,0.00,Wunderground v.1.15,2013-11-09 18:10:00,
2013-11-09 13:20:00,38.8,25.7,30.14,SE,139,3.0,3.0,59,0.00,,,0.00,Wunderground v.1.15,2013-11-09 18:20:00,
2013-11-09 13:30:00,38.9,26.6,30.13,SE,143,1.0,5.0,61,0.00,,,0.00,Wunderground v.1.15,2013-11-09 18:30:00,
2013-11-09 13:40:00,39.1,27.6,30.13,SSE,148,2.0,2.0,63,0.00,,,0.00,Wunderground v.1.15,2013-11-09 18:40:00,
2013-11-09 13:50:00,39.3,27.4,30.13,SSE,162,0.0,5.0,62,0.00,,,0.00,Wunderground v.1.15,2013-11-09 18:50:00,
2013-11-09 14:00:00,39.2,27.3,30.12,SE,131,1.0,5.0,62,0.00,,,0.00,Wunderground v.1.15,2013-11-09 19:00:00,
2013-11-09 14:10:00,39.2,28.0,30.12,SE,131,2.0,5.0,64,0.00,,,0.00,Wunderground v.1.15,2013-11-09 19:10:00,
2013-11-09 14:20:00,39.5,27.9,30.11,SSE,153,2.0,5.0,63,0.00,,,0.00,Wunderground v.1.15,2013-11-09 19:20:00,
2013-11-09 14:30:00,40.2,28.2,30.10,ESE,110,2.0,5.0,62,0.00,,,0.00,Wunderground v.1.15,2013-11-09 19:30:00,
2013-11-09 14:40:00,39.9,28.7,30.10,East,101,3.0,3.0,64,0.00,,,0.00,Wunderground v.1.15,2013-11-09 19:40:00,
2013-11-09 14:50:00,39.5,29.1,30.09,SE,126,3.0,5.0,66,0.00,,,0.00,Wunderground v.1.15,2013-11-09 19:50:00,
2013-11-09 15:00:00,39.3,28.5,30.08,SE,126,3.0,5.0,65,0.00,,,0.00,Wunderground v.1.15,2013-11-09 20:00:00,
2013-11-09 15:10:00,39.2,28.4,30.08,ESE,121,1.0,9.0,65,0.00,,,0.00,Wunderground v.1.15,2013-11-09 20:10:00,
2013-11-09 15:20:00,39.3,28.1,30.09,ESE,112,3.0,5.0,64,0.00,,,0.00,Wunderground v.1.15,2013-11-09 20:20:00,
2013-11-09 15:30:00,38.9,28.5,30.09,ESE,121,3.0,5.0,66,0.00,,,0.00,Wunderground v.1.15,2013-11-09 20:30:00,
2013-11-09 15:40:00,38.8,28.4,30.09,SE,139,1.0,1.0,66,0.00,,,0.00,Wunderground v.1.15,2013-11-09 20:40:00,
2013-11-09 15:50:00,38.6,28.2,30.09,SE,142,1.0,5.0,66,0.00,,,0.00,Wunderground v.1.15,2013-11-09 20:50:00,
2013-11-09 16:00:00,38.3,28.3,30.09,SE,143,0.0,5.0,67,0.00,,,0.00,Wunderground v.1.15,2013-11-09 21:00:00,
2013-11-09 16:10:00,37.9,27.9,30.09,SE,142,3.0,3.0,67,0.00,,,0.00,Wunderground v.1.15,2013-11-09 21:10:00,
2013-11-09 16:20:00,37.3,28.1,30.09,SE,142,0.0,5.0,69,0.00,,,0.00,Wunderground v.1.15,2013-11-09 21:20:00,
2013-11-09 16:30:00,36.8,27.9,30.09,ESE,121,1.0,1.0,70,0.00,,,0.00,Wunderground v.1.15,2013-11-09 21:30:00,
2013-11-09 16:40:00,36.5,28.3,30.09,ESE,121,0.0,5.0,72,0.00,,,0.00,Wunderground v.1.15,2013-11-09 21:40:00,
2013-11-09 16:50:00,36.3,28.1,30.08,ESE,121,0.0,5.0,72,0.00,,,0.00,Wunderground v.1.15,2013-11-09 21:50:00,
2013-11-09 17:00:00,36.5,28.0,30.08,ESE,116,0.0,5.0,71,0.00,,,0.00,Wunderground v.1.15,2013-11-09 22:00:00,
2013-11-09 17:10:00,37.0,28.1,30.08,ENE,59,1.0,5.0,70,0.00,,,0.00,Wunderground v.1.15,2013-11-09 22:10:00,
2013-11-09 17:20:00,37.2,28.3,30.08,ESE,109,1.0,1.0,70,0.00,,,0.00,Wunderground v.1.15,2013-11-09 22:20:00,
2013-11-09 17:30:00,36.8,28.6,30.08,East,81,0.0,5.0,72,0.00,,,0.00,Wunderground v.1.15,2013-11-09 22:30:00,
2013-11-09 17:40:00,36.8,28.3,30.08,East,82,0.0,5.0,71,0.00,,,0.00,Wunderground v.1.15,2013-11-09 22:40:00,
2013-11-09 17:50:00,37.0,28.5,30.07,East,83,0.0,5.0,71,0.00,,,0.00,Wunderground v.1.15,2013-11-09 22:50:00,
2013-11-09 18:00:00,37.3,28.1,30.06,ENE,62,1.0,5.0,69,0.00,,,0.00,Wunderground v.1.15,2013-11-09 23:00:00,
2013-11-09 18:10:00,37.6,27.6,30.06,NNE,27,2.0,2.0,67,0.00,,,0.00,Wunderground v.1.15,2013-11-09 23:10:00,
2013-11-09 18:20:00,37.8,27.8,30.06,SE,126,1.0,1.0,67,0.00,,,0.00,Wunderground v.1.15,2013-11-09 23:20:00,
2013-11-09 18:30:00,37.6,28.3,30.06,SE,126,0.0,0.0,69,0.00,,,0.00,Wunderground v.1.15,2013-11-09 23:30:00,
2013-11-09 18:40:00,36.9,28.4,30.06,SE,126,0.0,0.0,71,0.00,,,0.00,Wunderground v.1.15,2013-11-09 23:40:00,
2013-11-09 18:50:00,36.6,28.1,30.06,ESE,121,0.0,0.0,71,0.00,,,0.00,Wunderground v.1.15,2013-11-09 23:50:00,
2013-11-09 19:00:00,36.3,28.5,30.05,ESE,121,0.0,0.0,73,0.00,,,0.00,Wunderground v.1.15,2013-11-10 00:00:00,
2013-11-09 19:10:00,36.8,27.9,30.05,ESE,121,0.0,5.0,70,0.00,,,0.00,Wunderground v.1.15,2013-11-10 00:10:00,
2013-11-09 19:20:00,37.6,28.0,30.05,ENE,75,1.0,1.0,68,0.00,,,0.00,Wunderground v.1.15,2013-11-10 00:20:00,
2013-11-09 19:30:00,38.2,27.5,30.04,East,99,3.0,5.0,65,0.00,,,0.00,Wunderground v.1.15,2013-11-10 00:30:00,
2013-11-09 19:40:00,38.3,27.2,30.04,ESE,121,1.0,1.0,64,0.00,,,0.00,Wunderground v.1.15,2013-11-10 00:40:00,
2013-11-09 19:50:00,38.6,27.5,30.03,SE,126,1.0,1.0,64,0.00,,,0.00,Wunderground v.1.15,2013-11-10 00:50:00,
2013-11-09 20:00:00,37.6,29.4,30.04,ESE,121,0.0,5.0,72,0.00,,,0.00,Wunderground v.1.15,2013-11-10 01:00:00,
2013-11-09 20:10:00,36.5,29.3,30.04,ESE,121,0.0,5.0,75,0.00,,,0.00,Wunderground v.1.15,2013-11-10 01:10:00,
2013-11-09 20:20:00,35.9,29.4,30.04,ESE,121,0.0,5.0,77,0.00,,,0.00,Wunderground v.1.15,2013-11-10 01:20:00,
2013-11-09 20:30:00,36.9,28.0,30.03,SE,126,0.0,5.0,70,0.00,,,0.00,Wunderground v.1.15,2013-11-10 01:30:00,
2013-11-09 20:40:00,38.8,28.0,30.03,SSE,152,1.0,5.0,65,0.00,,,0.00,Wunderground v.1.15,2013-11-10 01:40:00,
2013-11-09 20:50:00,40.1,27.3,30.03,ESE,112,2.0,6.0,60,0.00,,,0.00,Wunderground v.1.15,2013-11-10 01:50:00,
2013-11-09 21:00:00,40.6,26.5,30.03,SE,131,3.0,3.0,57,0.00,,,0.00,Wunderground v.1.15,2013-11-10 02:00:00,
2013-11-09 21:10:00,40.9,26.8,30.03,SE,145,3.0,5.0,57,0.00,,,0.00,Wunderground v.1.15,2013-11-10 02:10:00,
2013-11-09 21:20:00,41.1,26.6,30.02,SE,140,4.0,5.0,56,0.00,,,0.00,Wunderground v.1.15,2013-11-10 02:20:00,
2013-11-09 21:30:00,41.2,26.7,30.02,SE,126,3.0,3.0,56,0.00,,,0.00,Wunderground v.1.15,2013-11-10 02:30:00,
2013-11-09 21:40:00,41.3,26.3,30.02,ESE,106,3.0,5.0,55,0.00,,,0.00,Wunderground v.1.15,2013-11-10 02:40:00,
2013-11-09 21:50:00,41.3,27.2,30.01,ESE,113,2.0,2.0,57,0.00,,,0.00,Wunderground v.1.15,2013-11-10 02:50:00,
2013-11-09 22:00:00,41.3,27.2,30.00,SE,126,2.0,5.0,57,0.00,,,0.00,Wunderground v.1.15,2013-11-10 03:00:00,
2013-11-09 22:10:00,41.5,27.4,30.00,East,95,3.0,6.0,57,0.00,,,0.00,Wunderground v.1.15,2013-11-10 03:10:00,
2013-11-09 22:20:00,40.8,30.3,30.00,SE,141,7.0,7.0,66,0.00,,,0.00,Wunderground v.1.15,2013-11-10 03:20:00,
2013-11-09 22:30:00,40.3,30.2,29.99,ESE,121,4.0,8.0,67,0.00,,,0.00,Wunderground v.1.15,2013-11-10 03:30:00,
2013-11-09 22:40:00,40.3,29.8,29.99,ESE,121,5.0,5.0,66,0.00,,,0.00,Wunderground v.1.15,2013-11-10 03:40:00,
2013-11-09 22:50:00,40.3,30.6,29.98,SSE,157,5.0,5.0,68,0.00,,,0.00,Wunderground v.1.15,2013-11-10 03:50:00,
2013-11-09 23:00:00,39.9,31.3,29.97,ESE,106,5.0,5.0,71,0.00,,,0.00,Wunderground v.1.15,2013-11-10 04:00:00,
2013-11-09 23:10:00,39.3,31.4,29.97,ESE,117,3.0,3.0,73,0.00,,,0.00,Wunderground v.1.15,2013-11-10 04:10:00,
2013-11-09 23:20:00,39.2,31.6,29.96,SE,131,2.0,2.0,74,0.00,,,0.00,Wunderground v.1.15,2013-11-10 04:20:00,
2013-11-09 23:30:00,39.1,32.2,29.95,East,87,2.0,2.0,76,0.00,,,0.00,Wunderground v.1.15,2013-11-10 04:30:00,
2013-11-09 23:40:00,38.8,32.2,29.95,East,92,2.0,2.0,77,0.00,,,0.00,Wunderground v.1.15,2013-11-10 04:40:00,
2013-11-09 23:50:00,38.8,31.9,29.94,North,359,2.0,5.0,76,0.00,,,0.00,Wunderground v.1.15,2013-11-10 04:50:00,